sensor_id;sensor_type;location;lat;lon;timestamp;temperature;humidity
47779;DHT22;33538;48.432;11.350;2023-04-25T00:01:18;9.90;80.30
47779;DHT22;33538;48.432;11.350;2023-04-25T00:03:45;9.90;80.60
47779;DHT22;33538;48.432;11.350;2023-04-25T00:06:12;9.90;80.70
47779;DHT22;33538;48.432;11.350;2023-04-25T00:08:39;9.80;80.70
47779;DHT22;33538;48.432;11.350;2023-04-25T00:11:06;9.80;80.90
47779;DHT22;33538;48.432;11.350;2023-04-25T00:13:33;9.80;80.70
47779;DHT22;33538;48.432;11.350;2023-04-25T00:16:01;9.80;80.50
47779;DHT22;33538;48.432;11.350;2023-04-25T00:18:28;9.80;80.40
47779;DHT22;33538;48.432;11.350;2023-04-25T00:20:55;9.80;80.30
47779;DHT22;33538;48.432;11.350;2023-04-25T00:23:22;9.50;81.20
47779;DHT22;33538;48.432;11.350;2023-04-25T00:25:49;9.50;81.40
47779;DHT22;33538;48.432;11.350;2023-04-25T00:28:16;9.70;81.40
47779;DHT22;33538;48.432;11.350;2023-04-25T00:30:43;9.70;81.30
47779;DHT22;33538;48.432;11.350;2023-04-25T00:33:11;9.70;81.30
47779;DHT22;33538;48.432;11.350;2023-04-25T00:35:38;9.70;80.90
47779;DHT22;33538;48.432;11.350;2023-04-25T00:38:05;9.70;80.50
47779;DHT22;33538;48.432;11.350;2023-04-25T00:40:32;9.70;80.50
47779;DHT22;33538;48.432;11.350;2023-04-25T00:42:59;9.60;81.00
47779;DHT22;33538;48.432;11.350;2023-04-25T00:45:28;9.60;81.60
47779;DHT22;33538;48.432;11.350;2023-04-25T00:47:55;9.60;81.80
47779;DHT22;33538;48.432;11.350;2023-04-25T00:50:24;9.70;81.80
47779;DHT22;33538;48.432;11.350;2023-04-25T00:52:51;9.70;81.90
47779;DHT22;33538;48.432;11.350;2023-04-25T00:55:18;9.70;82.30
47779;DHT22;33538;48.432;11.350;2023-04-25T00:57:46;9.60;82.60
47779;DHT22;33538;48.432;11.350;2023-04-25T01:00:13;9.60;82.90
47779;DHT22;33538;48.432;11.350;2023-04-25T01:02:40;9.60;82.60
47779;DHT22;33538;48.432;11.350;2023-04-25T01:05:08;9.60;83.30
47779;DHT22;33538;48.432;11.350;2023-04-25T01:07:36;9.60;83.70
47779;DHT22;33538;48.432;11.350;2023-04-25T01:10:04;9.50;83.90
47779;DHT22;33538;48.432;11.350;2023-04-25T01:12:31;9.50;84.50
47779;DHT22;33538;48.432;11.350;2023-04-25T01:14:58;9.50;84.70
47779;DHT22;33538;48.432;11.350;2023-04-25T01:17:25;9.50;84.80
47779;DHT22;33538;48.432;11.350;2023-04-25T01:19:52;9.50;85.40
47779;DHT22;33538;48.432;11.350;2023-04-25T01:22:20;9.40;85.30
47779;DHT22;33538;48.432;11.350;2023-04-25T01:24:47;9.50;85.60
47779;DHT22;33538;48.432;11.350;2023-04-25T01:27:14;9.50;85.40
47779;DHT22;33538;48.432;11.350;2023-04-25T01:29:41;9.60;84.80
47779;DHT22;33538;48.432;11.350;2023-04-25T01:32:08;9.70;85.60
47779;DHT22;33538;48.432;11.350;2023-04-25T01:34:36;9.70;84.20
47779;DHT22;33538;48.432;11.350;2023-04-25T01:37:02;9.70;84.30
47779;DHT22;33538;48.432;11.350;2023-04-25T01:39:31;9.70;84.50
47779;DHT22;33538;48.432;11.350;2023-04-25T01:41:59;9.70;85.10
47779;DHT22;33538;48.432;11.350;2023-04-25T01:44:26;9.60;85.20
47779;DHT22;33538;48.432;11.350;2023-04-25T01:46:54;9.60;86.00
47779;DHT22;33538;48.432;11.350;2023-04-25T01:49:21;9.50;86.80
47779;DHT22;33538;48.432;11.350;2023-04-25T01:51:48;9.50;86.80
47779;DHT22;33538;48.432;11.350;2023-04-25T01:54:14;9.40;86.30
47779;DHT22;33538;48.432;11.350;2023-04-25T01:56:42;9.50;86.60
47779;DHT22;33538;48.432;11.350;2023-04-25T01:59:11;9.40;86.70
47779;DHT22;33538;48.432;11.350;2023-04-25T02:01:38;9.50;86.60
47779;DHT22;33538;48.432;11.350;2023-04-25T02:04:05;9.60;86.40
47779;DHT22;33538;48.432;11.350;2023-04-25T02:06:32;9.50;86.50
47779;DHT22;33538;48.432;11.350;2023-04-25T02:08:58;9.60;86.80
47779;DHT22;33538;48.432;11.350;2023-04-25T02:11:25;9.50;87.50
47779;DHT22;33538;48.432;11.350;2023-04-25T02:13:53;9.40;88.00
47779;DHT22;33538;48.432;11.350;2023-04-25T02:16:20;9.30;88.60
47779;DHT22;33538;48.432;11.350;2023-04-25T02:18:47;9.40;87.90
47779;DHT22;33538;48.432;11.350;2023-04-25T02:21:14;9.40;87.70
47779;DHT22;33538;48.432;11.350;2023-04-25T02:23:41;9.40;88.10
47779;DHT22;33538;48.432;11.350;2023-04-25T02:26:08;9.50;87.50
47779;DHT22;33538;48.432;11.350;2023-04-25T02:28:34;9.50;87.10
47779;DHT22;33538;48.432;11.350;2023-04-25T02:31:03;9.60;86.60
47779;DHT22;33538;48.432;11.350;2023-04-25T02:33:29;9.50;87.00
47779;DHT22;33538;48.432;11.350;2023-04-25T02:35:56;9.50;87.60
47779;DHT22;33538;48.432;11.350;2023-04-25T02:38:23;9.50;87.00
47779;DHT22;33538;48.432;11.350;2023-04-25T02:40:50;9.50;86.90
47779;DHT22;33538;48.432;11.350;2023-04-25T02:43:16;9.50;86.80
47779;DHT22;33538;48.432;11.350;2023-04-25T02:45:43;9.60;87.60
47779;DHT22;33538;48.432;11.350;2023-04-25T02:48:11;9.60;87.00
47779;DHT22;33538;48.432;11.350;2023-04-25T02:50:38;9.60;86.90
47779;DHT22;33538;48.432;11.350;2023-04-25T02:53:05;9.60;86.70
47779;DHT22;33538;48.432;11.350;2023-04-25T02:55:31;9.60;86.80
47779;DHT22;33538;48.432;11.350;2023-04-25T02:57:58;9.60;86.70
47779;DHT22;33538;48.432;11.350;2023-04-25T03:00:25;9.60;86.70
47779;DHT22;33538;48.432;11.350;2023-04-25T03:02:52;9.60;86.60
47779;DHT22;33538;48.432;11.350;2023-04-25T03:05:20;9.60;86.70
47779;DHT22;33538;48.432;11.350;2023-04-25T03:07:47;9.60;87.70
47779;DHT22;33538;48.432;11.350;2023-04-25T03:10:14;9.60;87.40
47779;DHT22;33538;48.432;11.350;2023-04-25T03:12:40;9.60;87.40
47779;DHT22;33538;48.432;11.350;2023-04-25T03:15:07;9.60;87.20
47779;DHT22;33538;48.432;11.350;2023-04-25T03:17:34;9.60;87.20
47779;DHT22;33538;48.432;11.350;2023-04-25T03:20:01;9.60;87.30
47779;DHT22;33538;48.432;11.350;2023-04-25T03:22:29;9.60;88.10
47779;DHT22;33538;48.432;11.350;2023-04-25T03:24:56;9.50;88.60
47779;DHT22;33538;48.432;11.350;2023-04-25T03:27:23;9.50;89.00
47779;DHT22;33538;48.432;11.350;2023-04-25T03:29:49;9.50;89.20
47779;DHT22;33538;48.432;11.350;2023-04-25T03:32:16;9.50;89.10
47779;DHT22;33538;48.432;11.350;2023-04-25T03:34:43;9.50;90.00
47779;DHT22;33538;48.432;11.350;2023-04-25T03:37:10;9.50;89.70
47779;DHT22;33538;48.432;11.350;2023-04-25T03:39:38;9.50;89.80
47779;DHT22;33538;48.432;11.350;2023-04-25T03:42:04;9.40;90.10
47779;DHT22;33538;48.432;11.350;2023-04-25T03:44:31;9.40;90.30
47779;DHT22;33538;48.432;11.350;2023-04-25T03:46:58;9.40;90.00
47779;DHT22;33538;48.432;11.350;2023-04-25T03:49:25;9.50;89.60
47779;DHT22;33538;48.432;11.350;2023-04-25T03:51:52;9.50;89.30
47779;DHT22;33538;48.432;11.350;2023-04-25T03:54:18;9.50;89.40
47779;DHT22;33538;48.432;11.350;2023-04-25T03:56:46;9.50;90.10
47779;DHT22;33538;48.432;11.350;2023-04-25T03:59:13;9.50;89.90
47779;DHT22;33538;48.432;11.350;2023-04-25T04:01:40;9.50;90.00
47779;DHT22;33538;48.432;11.350;2023-04-25T04:04:07;9.50;90.00
47779;DHT22;33538;48.432;11.350;2023-04-25T04:06:34;9.50;90.00
47779;DHT22;33538;48.432;11.350;2023-04-25T04:09:01;9.60;89.90
47779;DHT22;33538;48.432;11.350;2023-04-25T04:11:27;9.50;90.20
47779;DHT22;33538;48.432;11.350;2023-04-25T04:13:55;9.50;90.10
47779;DHT22;33538;48.432;11.350;2023-04-25T04:16:22;9.50;90.10
47779;DHT22;33538;48.432;11.350;2023-04-25T04:18:49;9.40;90.30
47779;DHT22;33538;48.432;11.350;2023-04-25T04:21:16;9.50;90.10
47779;DHT22;33538;48.432;11.350;2023-04-25T04:23:43;9.50;90.10
47779;DHT22;33538;48.432;11.350;2023-04-25T04:26:09;9.50;90.00
47779;DHT22;33538;48.432;11.350;2023-04-25T04:28:36;9.50;89.80
47779;DHT22;33538;48.432;11.350;2023-04-25T04:31:04;9.60;89.50
47779;DHT22;33538;48.432;11.350;2023-04-25T04:33:31;9.60;89.50
47779;DHT22;33538;48.432;11.350;2023-04-25T04:35:58;9.60;89.70
47779;DHT22;33538;48.432;11.350;2023-04-25T04:38:25;9.60;89.90
47779;DHT22;33538;48.432;11.350;2023-04-25T04:40:51;9.50;90.00
47779;DHT22;33538;48.432;11.350;2023-04-25T04:43:18;9.50;90.00
47779;DHT22;33538;48.432;11.350;2023-04-25T04:45:45;9.50;90.10
47779;DHT22;33538;48.432;11.350;2023-04-25T04:48:13;9.60;90.10
47779;DHT22;33538;48.432;11.350;2023-04-25T04:50:40;9.60;90.00
47779;DHT22;33538;48.432;11.350;2023-04-25T04:53:07;9.60;90.00
47779;DHT22;33538;48.432;11.350;2023-04-25T04:55:33;9.60;89.70
47779;DHT22;33538;48.432;11.350;2023-04-25T04:58:00;9.60;89.90
47779;DHT22;33538;48.432;11.350;2023-04-25T05:00:27;9.60;90.00
47779;DHT22;33538;48.432;11.350;2023-04-25T05:02:55;9.60;90.00
47779;DHT22;33538;48.432;11.350;2023-04-25T05:05:24;9.60;90.10
47779;DHT22;33538;48.432;11.350;2023-04-25T05:07:50;9.60;90.10
47779;DHT22;33538;48.432;11.350;2023-04-25T05:10:18;9.60;90.10
47779;DHT22;33538;48.432;11.350;2023-04-25T05:12:45;9.60;90.20
47779;DHT22;33538;48.432;11.350;2023-04-25T05:15:12;9.60;90.40
47779;DHT22;33538;48.432;11.350;2023-04-25T05:17:39;9.60;90.40
47779;DHT22;33538;48.432;11.350;2023-04-25T05:20:07;9.50;90.70
47779;DHT22;33538;48.432;11.350;2023-04-25T05:22:35;9.50;90.60
47779;DHT22;33538;48.432;11.350;2023-04-25T05:25:02;9.50;90.90
47779;DHT22;33538;48.432;11.350;2023-04-25T05:27:29;9.50;90.90
47779;DHT22;33538;48.432;11.350;2023-04-25T05:29:55;9.50;91.10
47779;DHT22;33538;48.432;11.350;2023-04-25T05:32:22;9.50;91.60
47779;DHT22;33538;48.432;11.350;2023-04-25T05:34:49;9.50;91.00
47779;DHT22;33538;48.432;11.350;2023-04-25T05:37:16;9.50;91.00
47779;DHT22;33538;48.432;11.350;2023-04-25T05:39:44;9.50;91.10
47779;DHT22;33538;48.432;11.350;2023-04-25T05:42:10;9.60;91.30
47779;DHT22;33538;48.432;11.350;2023-04-25T05:44:37;9.50;91.40
47779;DHT22;33538;48.432;11.350;2023-04-25T05:47:04;9.60;91.20
47779;DHT22;33538;48.432;11.350;2023-04-25T05:49:31;9.60;91.00
47779;DHT22;33538;48.432;11.350;2023-04-25T05:51:58;9.60;90.80
47779;DHT22;33538;48.432;11.350;2023-04-25T05:54:24;9.60;90.60
47779;DHT22;33538;48.432;11.350;2023-04-25T05:56:52;9.60;90.70
47779;DHT22;33538;48.432;11.350;2023-04-25T05:59:19;9.60;90.70
47779;DHT22;33538;48.432;11.350;2023-04-25T06:01:46;9.60;90.70
47779;DHT22;33538;48.432;11.350;2023-04-25T06:04:13;9.70;90.70
47779;DHT22;33538;48.432;11.350;2023-04-25T06:06:40;9.60;90.50
47779;DHT22;33538;48.432;11.350;2023-04-25T06:09:07;9.70;90.40
47779;DHT22;33538;48.432;11.350;2023-04-25T06:11:33;9.60;90.60
47779;DHT22;33538;48.432;11.350;2023-04-25T06:14:01;9.60;90.80
47779;DHT22;33538;48.432;11.350;2023-04-25T06:16:28;9.60;90.70
47779;DHT22;33538;48.432;11.350;2023-04-25T06:18:55;9.60;90.60
47779;DHT22;33538;48.432;11.350;2023-04-25T06:21:22;9.60;90.60
47779;DHT22;33538;48.432;11.350;2023-04-25T06:23:49;9.60;90.70
47779;DHT22;33538;48.432;11.350;2023-04-25T06:26:16;9.60;90.80
47779;DHT22;33538;48.432;11.350;2023-04-25T06:28:43;9.60;90.90
47779;DHT22;33538;48.432;11.350;2023-04-25T06:31:11;9.60;91.10
47779;DHT22;33538;48.432;11.350;2023-04-25T06:33:38;9.60;91.20
47779;DHT22;33538;48.432;11.350;2023-04-25T06:36:05;9.60;91.30
47779;DHT22;33538;48.432;11.350;2023-04-25T06:38:32;9.60;91.30
47779;DHT22;33538;48.432;11.350;2023-04-25T06:40:59;9.60;91.50
47779;DHT22;33538;48.432;11.350;2023-04-25T06:43:25;9.60;91.80
47779;DHT22;33538;48.432;11.350;2023-04-25T06:45:52;9.60;91.60
47779;DHT22;33538;48.432;11.350;2023-04-25T06:48:20;9.60;91.50
47779;DHT22;33538;48.432;11.350;2023-04-25T06:50:47;9.70;91.60
47779;DHT22;33538;48.432;11.350;2023-04-25T06:53:14;9.70;91.60
47779;DHT22;33538;48.432;11.350;2023-04-25T06:55:41;9.80;91.50
47779;DHT22;33538;48.432;11.350;2023-04-25T06:58:08;9.80;91.40
47779;DHT22;33538;48.432;11.350;2023-04-25T07:00:34;9.80;91.40
47779;DHT22;33538;48.432;11.350;2023-04-25T07:03:01;9.80;91.50
47779;DHT22;33538;48.432;11.350;2023-04-25T07:05:29;9.90;91.60
47779;DHT22;33538;48.432;11.350;2023-04-25T07:07:57;9.90;91.60
47779;DHT22;33538;48.432;11.350;2023-04-25T07:10:23;9.90;91.70
47779;DHT22;33538;48.432;11.350;2023-04-25T07:12:50;9.90;91.90
47779;DHT22;33538;48.432;11.350;2023-04-25T07:15:17;9.90;91.90
47779;DHT22;33538;48.432;11.350;2023-04-25T07:17:44;9.90;91.90
47779;DHT22;33538;48.432;11.350;2023-04-25T07:20:11;10.00;92.00
47779;DHT22;33538;48.432;11.350;2023-04-25T07:22:39;10.00;92.00
47779;DHT22;33538;48.432;11.350;2023-04-25T07:25:06;10.00;92.10
47779;DHT22;33538;48.432;11.350;2023-04-25T07:27:33;10.00;92.10
47779;DHT22;33538;48.432;11.350;2023-04-25T07:30:00;10.00;91.90
47779;DHT22;33538;48.432;11.350;2023-04-25T07:32:27;10.10;91.80
47779;DHT22;33538;48.432;11.350;2023-04-25T07:34:54;10.10;91.90
47779;DHT22;33538;48.432;11.350;2023-04-25T07:37:21;10.10;91.80
47779;DHT22;33538;48.432;11.350;2023-04-25T07:39:49;10.10;91.80
47779;DHT22;33538;48.432;11.350;2023-04-25T07:42:16;10.20;91.70
47779;DHT22;33538;48.432;11.350;2023-04-25T07:44:42;10.20;91.70
47779;DHT22;33538;48.432;11.350;2023-04-25T07:47:09;10.20;91.60
47779;DHT22;33538;48.432;11.350;2023-04-25T07:49:37;10.20;91.50
47779;DHT22;33538;48.432;11.350;2023-04-25T07:52:05;10.30;91.50
47779;DHT22;33538;48.432;11.350;2023-04-25T07:54:32;10.30;91.40
47779;DHT22;33538;48.432;11.350;2023-04-25T07:57:00;10.40;91.50
47779;DHT22;33538;48.432;11.350;2023-04-25T07:59:27;10.40;91.50
47779;DHT22;33538;48.432;11.350;2023-04-25T08:01:56;10.40;91.50
47779;DHT22;33538;48.432;11.350;2023-04-25T08:04:22;10.40;91.70
47779;DHT22;33538;48.432;11.350;2023-04-25T08:06:49;10.40;91.70
47779;DHT22;33538;48.432;11.350;2023-04-25T08:09:16;10.40;91.70
47779;DHT22;33538;48.432;11.350;2023-04-25T08:11:43;10.50;91.80
47779;DHT22;33538;48.432;11.350;2023-04-25T08:14:11;10.50;92.30
47779;DHT22;33538;48.432;11.350;2023-04-25T08:16:38;10.50;92.20
47779;DHT22;33538;48.432;11.350;2023-04-25T08:19:05;10.50;92.20
47779;DHT22;33538;48.432;11.350;2023-04-25T08:21:32;10.50;92.20
47779;DHT22;33538;48.432;11.350;2023-04-25T08:23:59;10.50;92.30
47779;DHT22;33538;48.432;11.350;2023-04-25T08:26:26;10.50;92.50
47779;DHT22;33538;48.432;11.350;2023-04-25T08:28:53;10.50;92.70
47779;DHT22;33538;48.432;11.350;2023-04-25T08:31:21;10.50;92.80
47779;DHT22;33538;48.432;11.350;2023-04-25T08:33:47;10.50;92.70
47779;DHT22;33538;48.432;11.350;2023-04-25T08:36:14;10.50;92.80
47779;DHT22;33538;48.432;11.350;2023-04-25T08:39:01;10.50;92.90
47779;DHT22;33538;48.432;11.350;2023-04-25T08:41:28;10.50;92.90
47779;DHT22;33538;48.432;11.350;2023-04-25T08:43:56;10.50;92.80
47779;DHT22;33538;48.432;11.350;2023-04-25T08:46:24;10.50;92.90
47779;DHT22;33538;48.432;11.350;2023-04-25T08:48:53;10.60;92.90
47779;DHT22;33538;48.432;11.350;2023-04-25T08:51:24;10.60;92.80
47779;DHT22;33538;48.432;11.350;2023-04-25T08:53:52;10.60;93.00
47779;DHT22;33538;48.432;11.350;2023-04-25T08:56:24;10.60;92.90
47779;DHT22;33538;48.432;11.350;2023-04-25T08:58:51;10.60;92.80
47779;DHT22;33538;48.432;11.350;2023-04-25T09:01:18;10.60;92.90
47779;DHT22;33538;48.432;11.350;2023-04-25T09:03:47;10.70;92.80
47779;DHT22;33538;48.432;11.350;2023-04-25T09:06:15;10.70;92.90
47779;DHT22;33538;48.432;11.350;2023-04-25T09:08:42;10.70;93.10
47779;DHT22;33538;48.432;11.350;2023-04-25T09:11:09;10.70;93.10
47779;DHT22;33538;48.432;11.350;2023-04-25T09:13:36;10.70;93.00
47779;DHT22;33538;48.432;11.350;2023-04-25T09:16:03;10.70;92.90
47779;DHT22;33538;48.432;11.350;2023-04-25T09:18:31;10.70;93.00
47779;DHT22;33538;48.432;11.350;2023-04-25T09:21:05;10.70;93.00
47779;DHT22;33538;48.432;11.350;2023-04-25T09:23:41;10.70;93.10
47779;DHT22;33538;48.432;11.350;2023-04-25T09:26:08;10.80;93.20
47779;DHT22;33538;48.432;11.350;2023-04-25T09:28:35;10.80;93.30
47779;DHT22;33538;48.432;11.350;2023-04-25T09:31:02;10.80;93.30
47779;DHT22;33538;48.432;11.350;2023-04-25T09:33:30;10.90;93.50
47779;DHT22;33538;48.432;11.350;2023-04-25T09:36:03;10.90;93.80
47779;DHT22;33538;48.432;11.350;2023-04-25T09:38:31;10.90;93.60
47779;DHT22;33538;48.432;11.350;2023-04-25T09:40:59;10.90;93.80
47779;DHT22;33538;48.432;11.350;2023-04-25T09:43:26;10.90;93.40
47779;DHT22;33538;48.432;11.350;2023-04-25T09:45:54;11.00;93.50
47779;DHT22;33538;48.432;11.350;2023-04-25T09:48:25;11.00;93.40
47779;DHT22;33538;48.432;11.350;2023-04-25T09:51:07;11.00;93.70
47779;DHT22;33538;48.432;11.350;2023-04-25T09:53:34;11.00;93.20
47779;DHT22;33538;48.432;11.350;2023-04-25T09:56:03;11.00;93.50
47779;DHT22;33538;48.432;11.350;2023-04-25T09:58:31;11.10;93.60
47779;DHT22;33538;48.432;11.350;2023-04-25T10:01:01;11.10;92.70
47779;DHT22;33538;48.432;11.350;2023-04-25T10:03:30;11.20;93.10
47779;DHT22;33538;48.432;11.350;2023-04-25T10:06:00;11.20;93.10
47779;DHT22;33538;48.432;11.350;2023-04-25T10:08:31;11.20;92.90
47779;DHT22;33538;48.432;11.350;2023-04-25T10:11:00;11.20;92.80
47779;DHT22;33538;48.432;11.350;2023-04-25T10:13:28;11.20;92.90
47779;DHT22;33538;48.432;11.350;2023-04-25T10:15:55;11.20;93.30
47779;DHT22;33538;48.432;11.350;2023-04-25T10:18:22;11.20;93.00
47779;DHT22;33538;48.432;11.350;2023-04-25T10:20:49;11.40;91.20
47779;DHT22;33538;48.432;11.350;2023-04-25T10:23:20;11.40;91.10
47779;DHT22;33538;48.432;11.350;2023-04-25T10:25:49;11.40;91.10
47779;DHT22;33538;48.432;11.350;2023-04-25T10:28:16;11.50;89.10
47779;DHT22;33538;48.432;11.350;2023-04-25T10:30:57;11.50;90.10
47779;DHT22;33538;48.432;11.350;2023-04-25T10:33:32;11.40;90.40
47779;DHT22;33538;48.432;11.350;2023-04-25T10:35:59;11.40;90.50
47779;DHT22;33538;48.432;11.350;2023-04-25T10:38:34;11.50;90.00
47779;DHT22;33538;48.432;11.350;2023-04-25T10:41:07;11.50;90.20
47779;DHT22;33538;48.432;11.350;2023-04-25T10:43:36;11.50;90.20
47779;DHT22;33538;48.432;11.350;2023-04-25T10:46:13;11.50;90.00
47779;DHT22;33538;48.432;11.350;2023-04-25T10:48:45;11.50;89.70
47779;DHT22;33538;48.432;11.350;2023-04-25T10:51:17;11.50;89.90
47779;DHT22;33538;48.432;11.350;2023-04-25T10:53:44;11.40;90.40
47779;DHT22;33538;48.432;11.350;2023-04-25T10:56:16;11.40;90.80
47779;DHT22;33538;48.432;11.350;2023-04-25T10:58:44;11.40;90.80
47779;DHT22;33538;48.432;11.350;2023-04-25T11:01:12;11.40;90.90
47779;DHT22;33538;48.432;11.350;2023-04-25T11:03:43;11.30;91.20
47779;DHT22;33538;48.432;11.350;2023-04-25T11:06:20;11.30;91.30
47779;DHT22;33538;48.432;11.350;2023-04-25T11:08:50;11.20;91.50
47779;DHT22;33538;48.432;11.350;2023-04-25T11:11:19;11.20;91.70
47779;DHT22;33538;48.432;11.350;2023-04-25T11:13:48;11.20;92.40
47779;DHT22;33538;48.432;11.350;2023-04-25T11:16:15;11.20;92.60
47779;DHT22;33538;48.432;11.350;2023-04-25T11:18:53;11.20;93.30
47779;DHT22;33538;48.432;11.350;2023-04-25T11:21:20;11.20;93.70
47779;DHT22;33538;48.432;11.350;2023-04-25T11:23:47;11.10;93.70
47779;DHT22;33538;48.432;11.350;2023-04-25T11:26:14;11.10;93.60
47779;DHT22;33538;48.432;11.350;2023-04-25T11:28:44;11.10;93.70
47779;DHT22;33538;48.432;11.350;2023-04-25T11:31:11;11.10;93.80
47779;DHT22;33538;48.432;11.350;2023-04-25T11:33:38;11.00;93.90
47779;DHT22;33538;48.432;11.350;2023-04-25T11:36:05;11.00;94.00
47779;DHT22;33538;48.432;11.350;2023-04-25T11:38:33;11.00;94.30
47779;DHT22;33538;48.432;11.350;2023-04-25T11:41:00;11.00;94.50
47779;DHT22;33538;48.432;11.350;2023-04-25T11:43:28;10.90;94.50
47779;DHT22;33538;48.432;11.350;2023-04-25T11:45:56;10.90;94.70
47779;DHT22;33538;48.432;11.350;2023-04-25T11:48:23;10.90;94.80
47779;DHT22;33538;48.432;11.350;2023-04-25T11:50:53;10.90;95.00
47779;DHT22;33538;48.432;11.350;2023-04-25T11:53:20;10.80;95.00
47779;DHT22;33538;48.432;11.350;2023-04-25T11:55:47;10.80;95.20
47779;DHT22;33538;48.432;11.350;2023-04-25T11:58:14;10.70;95.80
47779;DHT22;33538;48.432;11.350;2023-04-25T12:00:42;10.60;96.50
47779;DHT22;33538;48.432;11.350;2023-04-25T12:03:18;10.60;95.80
47779;DHT22;33538;48.432;11.350;2023-04-25T12:05:46;10.60;95.70
47779;DHT22;33538;48.432;11.350;2023-04-25T12:08:14;10.50;96.40
47779;DHT22;33538;48.432;11.350;2023-04-25T12:10:42;10.50;96.90
47779;DHT22;33538;48.432;11.350;2023-04-25T12:13:23;10.50;97.10
47779;DHT22;33538;48.432;11.350;2023-04-25T12:15:50;10.50;97.30
47779;DHT22;33538;48.432;11.350;2023-04-25T12:18:20;10.40;97.60
47779;DHT22;33538;48.432;11.350;2023-04-25T12:20:47;10.40;97.10
47779;DHT22;33538;48.432;11.350;2023-04-25T12:23:14;10.30;96.90
47779;DHT22;33538;48.432;11.350;2023-04-25T12:25:42;10.30;97.60
47779;DHT22;33538;48.432;11.350;2023-04-25T12:28:10;10.30;97.10
47779;DHT22;33538;48.432;11.350;2023-04-25T12:30:52;10.30;97.50
47779;DHT22;33538;48.432;11.350;2023-04-25T12:33:21;10.30;98.10
47779;DHT22;33538;48.432;11.350;2023-04-25T12:35:47;10.40;98.40
47779;DHT22;33538;48.432;11.350;2023-04-25T12:38:21;10.40;98.70
47779;DHT22;33538;48.432;11.350;2023-04-25T12:40:47;10.40;98.20
47779;DHT22;33538;48.432;11.350;2023-04-25T12:43:14;10.50;97.70
47779;DHT22;33538;48.432;11.350;2023-04-25T12:45:41;10.50;97.20
47779;DHT22;33538;48.432;11.350;2023-04-25T12:48:08;10.60;96.90
47779;DHT22;33538;48.432;11.350;2023-04-25T12:50:36;10.60;96.70
47779;DHT22;33538;48.432;11.350;2023-04-25T12:53:03;10.60;96.70
47779;DHT22;33538;48.432;11.350;2023-04-25T12:55:29;10.60;96.70
47779;DHT22;33538;48.432;11.350;2023-04-25T12:57:56;10.60;96.80
47779;DHT22;33538;48.432;11.350;2023-04-25T13:00:23;10.60;96.70
47779;DHT22;33538;48.432;11.350;2023-04-25T13:02:50;10.60;96.60
47779;DHT22;33538;48.432;11.350;2023-04-25T13:05:17;10.60;96.50
47779;DHT22;33538;48.432;11.350;2023-04-25T13:07:45;10.60;96.30
47779;DHT22;33538;48.432;11.350;2023-04-25T13:10:12;10.60;96.20
47779;DHT22;33538;48.432;11.350;2023-04-25T13:12:38;10.60;96.30
47779;DHT22;33538;48.432;11.350;2023-04-25T13:15:06;10.60;96.30
47779;DHT22;33538;48.432;11.350;2023-04-25T13:17:33;10.50;96.30
47779;DHT22;33538;48.432;11.350;2023-04-25T13:20:00;10.50;96.40
47779;DHT22;33538;48.432;11.350;2023-04-25T13:22:27;10.50;96.40
47779;DHT22;33538;48.432;11.350;2023-04-25T13:24:55;10.50;96.30
47779;DHT22;33538;48.432;11.350;2023-04-25T13:27:22;10.50;96.20
47779;DHT22;33538;48.432;11.350;2023-04-25T13:29:49;10.40;96.30
47779;DHT22;33538;48.432;11.350;2023-04-25T13:32:15;10.40;96.30
47779;DHT22;33538;48.432;11.350;2023-04-25T13:34:42;10.40;96.30
47779;DHT22;33538;48.432;11.350;2023-04-25T13:37:09;10.40;96.20
47779;DHT22;33538;48.432;11.350;2023-04-25T13:39:36;10.40;96.30
47779;DHT22;33538;48.432;11.350;2023-04-25T13:42:04;10.40;96.00
47779;DHT22;33538;48.432;11.350;2023-04-25T13:44:31;10.40;95.90
47779;DHT22;33538;48.432;11.350;2023-04-25T13:46:57;10.40;95.70
47779;DHT22;33538;48.432;11.350;2023-04-25T13:49:24;10.40;95.60
47779;DHT22;33538;48.432;11.350;2023-04-25T13:51:51;10.40;95.50
47779;DHT22;33538;48.432;11.350;2023-04-25T13:54:18;10.40;95.40
47779;DHT22;33538;48.432;11.350;2023-04-25T13:56:44;10.40;95.70
47779;DHT22;33538;48.432;11.350;2023-04-25T13:59:13;10.30;95.60
47779;DHT22;33538;48.432;11.350;2023-04-25T14:01:39;10.30;95.70
47779;DHT22;33538;48.432;11.350;2023-04-25T14:04:06;10.30;95.70
47779;DHT22;33538;48.432;11.350;2023-04-25T14:06:34;10.40;95.60
47779;DHT22;33538;48.432;11.350;2023-04-25T14:09:01;10.40;95.50
47779;DHT22;33538;48.432;11.350;2023-04-25T14:11:28;10.40;95.30
47779;DHT22;33538;48.432;11.350;2023-04-25T14:13:54;10.40;95.30
47779;DHT22;33538;48.432;11.350;2023-04-25T14:16:22;10.40;95.40
47779;DHT22;33538;48.432;11.350;2023-04-25T14:18:49;10.50;95.60
47779;DHT22;33538;48.432;11.350;2023-04-25T14:21:16;10.50;95.70
47779;DHT22;33538;48.432;11.350;2023-04-25T14:23:43;10.50;95.80
47779;DHT22;33538;48.432;11.350;2023-04-25T14:26:09;10.50;95.80
47779;DHT22;33538;48.432;11.350;2023-04-25T14:28:36;10.50;95.80
47779;DHT22;33538;48.432;11.350;2023-04-25T14:31:03;10.50;95.80
47779;DHT22;33538;48.432;11.350;2023-04-25T14:33:31;10.60;96.00
47779;DHT22;33538;48.432;11.350;2023-04-25T14:35:58;10.60;96.00
47779;DHT22;33538;48.432;11.350;2023-04-25T14:38:24;10.60;96.20
47779;DHT22;33538;48.432;11.350;2023-04-25T14:40:52;10.60;96.20
47779;DHT22;33538;48.432;11.350;2023-04-25T14:43:19;10.60;96.20
47779;DHT22;33538;48.432;11.350;2023-04-25T14:45:45;10.60;96.30
47779;DHT22;33538;48.432;11.350;2023-04-25T14:48:12;10.60;96.70
47779;DHT22;33538;48.432;11.350;2023-04-25T14:50:42;10.40;97.00
47779;DHT22;33538;48.432;11.350;2023-04-25T14:53:08;10.40;97.60
47779;DHT22;33538;48.432;11.350;2023-04-25T14:55:35;10.30;97.80
47779;DHT22;33538;48.432;11.350;2023-04-25T14:58:02;10.30;98.70
47779;DHT22;33538;48.432;11.350;2023-04-25T15:00:29;10.20;99.70
47779;DHT22;33538;48.432;11.350;2023-04-25T15:02:55;10.20;99.90
47779;DHT22;33538;48.432;11.350;2023-04-25T15:05:22;10.20;99.90
47779;DHT22;33538;48.432;11.350;2023-04-25T15:07:51;10.20;99.90
47779;DHT22;33538;48.432;11.350;2023-04-25T15:10:18;10.10;99.90
47779;DHT22;33538;48.432;11.350;2023-04-25T15:12:45;10.10;99.90
47779;DHT22;33538;48.432;11.350;2023-04-25T15:15:14;10.10;99.90
47779;DHT22;33538;48.432;11.350;2023-04-25T15:17:51;10.10;99.90
47779;DHT22;33538;48.432;11.350;2023-04-25T15:20:18;10.10;99.90
47779;DHT22;33538;48.432;11.350;2023-04-25T15:22:44;10.10;99.90
47779;DHT22;33538;48.432;11.350;2023-04-25T15:25:12;10.10;99.90